PrentiSS Brown — WDE6848 — position and weather

sailwx.info

Track history (hours):
 
Tides and Currents Weather Stations Pressure Air Temp Water Temp Dewpoint Dewpoint Depression Visibility Wind Speed Wind Dir Waves Ship Positions

PrentiSS Brown

Owner: Port City Marine Services Inc, Muskegon, MI. More information available from US FCC via Universal Licensing System and Coast Guard Vessel Documentation Center.

Last reported at 2017-May-22 20:13 UTC. Time now 2017-May-23 22:25 UTC.
Position N 45°13' W 085°38'.

; draft 7 m.

Type: Other ship. MMSI: 366922280.

Date/timePositionNaut miles runAvg speedWind from/ knotsBaromVisibWave heightAir tempDewpointWater temp
2017-May-22 20:13N 45°13' W 085°38'2 8.1
2017-May-22 20:00N 45°14' W 085°36'4 8.0
2017-May-22 19:30N 45°16' W 085°31'4 8.0
2017-May-22 19:00N 45°18' W 085°26'4 7.9
2017-May-22 18:31N 45°19' W 085°21'3 5.7
2017-May-22 18:01N 45°19' W 085°17'0 0.8
2017-May-22 17:31N 45°19' W 085°18'0 0.0
2017-May-22 17:01N 45°19' W 085°18'0 0.0
2017-May-22 16:31N 45°19' W 085°18'0 0.0
2017-May-22 16:00N 45°19' W 085°18'0 0.1
2017-May-22 15:31N 45°19' W 085°18'0 0.0
2017-May-22 15:00N 45°19' W 085°18'0 0.0
2017-May-22 14:00N 45°19' W 085°18'0 0.0
2017-May-22 13:30N 45°19' W 085°18'0 0.0
2017-May-22 13:00N 45°19' W 085°18'0 0.0
2017-May-22 12:30N 45°19' W 085°18'0 0.2
2017-May-22 12:01N 45°19' W 085°18'2 3.3
2017-May-22 11:30N 45°20' W 085°20'5 9.2
2017-May-22 11:00N 45°18' W 085°26'5 9.2
2017-May-22 10:30N 45°16' W 085°32'  
2017-May-19 15:40N 45°13' W 085°39'1 7.8
2017-May-19 15:30N 45°13' W 085°37'4 7.8
2017-May-19 15:00N 45°15' W 085°32'8 7.9
2017-May-19 14:00N 45°19' W 085°23'4 7.1
2017-May-19 13:30N 45°20' W 085°18'1 1.9
2017-May-19 13:00N 45°19' W 085°18'0 0.0
2017-May-19 12:31N 45°19' W 085°18'0 0.0
2017-May-19 12:00N 45°19' W 085°18'0 0.0
2017-May-19 11:31N 45°19' W 085°18'0 0.0
2017-May-19 11:00N 45°19' W 085°18'0 0.0
2017-May-19 10:30N 45°19' W 085°18'0 0.0
2017-May-19 10:01N 45°19' W 085°18'0 0.0
2017-May-19 09:30N 45°19' W 085°18'0 0.0
2017-May-19 09:00N 45°19' W 085°18'0 0.0
2017-May-19 08:30N 45°19' W 085°18'0 0.5
2017-May-19 08:00N 45°19' W 085°17'0 0.3
2017-May-19 07:31N 45°19' W 085°17'2 4.8
2017-May-19 07:00N 45°21' W 085°19'4 7.2
2017-May-19 06:30N 45°24' W 085°23'4 7.2
2017-May-19 06:00N 45°26' W 085°27'4 7.2
2017-May-19 05:30N 45°28' W 085°31'4 7.3
2017-May-19 05:00N 45°30' W 085°36'4 7.2
2017-May-19 04:31N 45°32' W 085°39'9 7.5
2017-May-19 03:21N 45°40' W 085°44'4 7.6
2017-May-19 02:50N 45°44' W 085°46'  
2017-May-14 20:03N 45°13' W 085°39'0 8.6
2017-May-14 20:00N 45°13' W 085°38'4 8.6
2017-May-14 19:30N 45°15' W 085°33'4 8.6
2017-May-14 19:00N 45°17' W 085°28'4 8.6
2017-May-14 18:30N 45°19' W 085°22'3 6.9
2017-May-14 18:00N 45°19' W 085°17'0 0.8
2017-May-14 17:30N 45°19' W 085°18'0 0.0
2017-May-14 17:00N 45°19' W 085°18'0 0.0
2017-May-14 16:30N 45°19' W 085°18'0 0.0
2017-May-14 16:00N 45°19' W 085°18'0 0.0
2017-May-14 15:30N 45°19' W 085°18'0 0.1
2017-May-14 15:00N 45°19' W 085°18'0 0.0
2017-May-14 14:30N 45°19' W 085°18'0 0.0
2017-May-14 13:30N 45°19' W 085°18'0 0.0
2017-May-14 13:00N 45°19' W 085°18'0 0.0
2017-May-14 12:30N 45°19' W 085°18'1 1.8
2017-May-14 12:00N 45°20' W 085°18'4 9.0
2017-May-14 11:30N 45°18' W 085°23'5 9.1
2017-May-14 11:00N 45°16' W 085°29'5 9.1
2017-May-14 10:30N 45°14' W 085°35'  
Track history (hours):
 
Tides and Currents Weather Stations Pressure Air Temp Water Temp Dewpoint Dewpoint Depression Visibility Wind Speed Wind Dir Waves Ship Positions

PrentiSS Brown

Owner: Port City Marine Services Inc, Muskegon, MI. More information available from US FCC via Universal Licensing System and Coast Guard Vessel Documentation Center.

Last reported at 2017-May-22 20:13 UTC. Time now 2017-May-23 22:25 UTC.
Position N 45°13' W 085°38'.

; draft 7 m.

Type: Other ship. MMSI: 366922280.

Date/timePositionNaut miles runAvg speedWind from/ knotsBaromVisibWave heightAir tempDewpointWater temp
2017-May-22 20:13N 45°13' W 085°38'2 8.1
2017-May-22 20:00N 45°14' W 085°36'4 8.0
2017-May-22 19:30N 45°16' W 085°31'4 8.0
2017-May-22 19:00N 45°18' W 085°26'4 7.9
2017-May-22 18:31N 45°19' W 085°21'3 5.7
2017-May-22 18:01N 45°19' W 085°17'0 0.8
2017-May-22 17:31N 45°19' W 085°18'0 0.0
2017-May-22 17:01N 45°19' W 085°18'0 0.0
2017-May-22 16:31N 45°19' W 085°18'0 0.0
2017-May-22 16:00N 45°19' W 085°18'0 0.1
2017-May-22 15:31N 45°19' W 085°18'0 0.0
2017-May-22 15:00N 45°19' W 085°18'0 0.0
2017-May-22 14:00N 45°19' W 085°18'0 0.0
2017-May-22 13:30N 45°19' W 085°18'0 0.0
2017-May-22 13:00N 45°19' W 085°18'0 0.0
2017-May-22 12:30N 45°19' W 085°18'0 0.2
2017-May-22 12:01N 45°19' W 085°18'2 3.3
2017-May-22 11:30N 45°20' W 085°20'5 9.2
2017-May-22 11:00N 45°18' W 085°26'5 9.2
2017-May-22 10:30N 45°16' W 085°32'  
2017-May-19 15:40N 45°13' W 085°39'1 7.8
2017-May-19 15:30N 45°13' W 085°37'4 7.8
2017-May-19 15:00N 45°15' W 085°32'8 7.9
2017-May-19 14:00N 45°19' W 085°23'4 7.1
2017-May-19 13:30N 45°20' W 085°18'1 1.9
2017-May-19 13:00N 45°19' W 085°18'0 0.0
2017-May-19 12:31N 45°19' W 085°18'0 0.0
2017-May-19 12:00N 45°19' W 085°18'0 0.0
2017-May-19 11:31N 45°19' W 085°18'0 0.0
2017-May-19 11:00N 45°19' W 085°18'0 0.0
2017-May-19 10:30N 45°19' W 085°18'0 0.0
2017-May-19 10:01N 45°19' W 085°18'0 0.0
2017-May-19 09:30N 45°19' W 085°18'0 0.0
2017-May-19 09:00N 45°19' W 085°18'0 0.0
2017-May-19 08:30N 45°19' W 085°18'0 0.5
2017-May-19 08:00N 45°19' W 085°17'0 0.3
2017-May-19 07:31N 45°19' W 085°17'2 4.8
2017-May-19 07:00N 45°21' W 085°19'4 7.2
2017-May-19 06:30N 45°24' W 085°23'4 7.2
2017-May-19 06:00N 45°26' W 085°27'4 7.2
2017-May-19 05:30N 45°28' W 085°31'4 7.3
2017-May-19 05:00N 45°30' W 085°36'4 7.2
2017-May-19 04:31N 45°32' W 085°39'9 7.5
2017-May-19 03:21N 45°40' W 085°44'4 7.6
2017-May-19 02:50N 45°44' W 085°46'  
2017-May-14 20:03N 45°13' W 085°39'0 8.6
2017-May-14 20:00N 45°13' W 085°38'4 8.6
2017-May-14 19:30N 45°15' W 085°33'4 8.6
2017-May-14 19:00N 45°17' W 085°28'4 8.6
2017-May-14 18:30N 45°19' W 085°22'3 6.9
2017-May-14 18:00N 45°19' W 085°17'0 0.8
2017-May-14 17:30N 45°19' W 085°18'0 0.0
2017-May-14 17:00N 45°19' W 085°18'0 0.0
2017-May-14 16:30N 45°19' W 085°18'0 0.0
2017-May-14 16:00N 45°19' W 085°18'0 0.0
2017-May-14 15:30N 45°19' W 085°18'0 0.1
2017-May-14 15:00N 45°19' W 085°18'0 0.0
2017-May-14 14:30N 45°19' W 085°18'0 0.0
2017-May-14 13:30N 45°19' W 085°18'0 0.0
2017-May-14 13:00N 45°19' W 085°18'0 0.0
2017-May-14 12:30N 45°19' W 085°18'1 1.8
2017-May-14 12:00N 45°20' W 085°18'4 9.0
2017-May-14 11:30N 45°18' W 085°23'5 9.1
2017-May-14 11:00N 45°16' W 085°29'5 9.1
2017-May-14 10:30N 45°14' W 085°35'  

Dump ship's entire track history